CONNECT WITH FLYNQY PILOT TRAINING

Newquay Five Day Forecast

This Weather Widget is provided by the Met Office

EGHQ TAF and METAR

METAR

EGHQ 241750Z 29009KT 9999 FEW015 11/09 Q1016

TAF

TAF EGHQ 241701Z 2418/2421 29012KT 9999 FEW020